Time;durP1;ratioP1;P1;durP2;ratioP2;P2;SDS_P1;SDS_P2;PMS_P1;PMS_P2;Temp;Humidity;BMP_temperature;BMP_pressure;BME280_temperature;BME280_humidity;BME280_pressure;Samples;Min_cycle;Max_cycle;Signal;HPM_P1;HPM_P2
2024/03/07 00:01:07;;;;;;;17.20;11.67;;;;;;;3.81;59.04;101374.28;5068165;28;20197;-63
2024/03/07 00:03:35;;;;;;;18.07;12.20;;;;;;;3.86;58.65;101372.75;5070583;28;20224;-62
2024/03/07 00:06:04;;;;;;;18.13;11.30;;;;;;;3.84;58.14;101365.88;5070862;28;20235;-62
2024/03/07 00:08:32;;;;;;;18.67;12.53;;;;;;;3.83;58.08;101371.81;5069957;28;20213;-62
2024/03/07 00:11:00;;;;;;;16.67;11.47;;;;;;;3.77;58.26;101377.53;5070877;28;20220;-62
2024/03/07 00:13:30;;;;;;;18.70;11.93;;;;;;;3.73;58.32;101378.22;5067286;28;20231;-61
2024/03/07 00:15:58;;;;;;;19.73;12.40;;;;;;;3.72;58.57;101373.06;5067867;28;20202;-61
2024/03/07 00:18:27;;;;;;;19.20;11.77;;;;;;;3.72;59.25;101383.25;5064117;28;20586;-61
2024/03/07 00:20:55;;;;;;;17.53;12.23;;;;;;;3.73;59.09;101373.13;5068496;28;20198;-66
2024/03/07 00:23:23;;;;;;;19.67;12.47;;;;;;;3.76;59.46;101378.34;5052635;28;20209;-63
2024/03/07 00:25:52;;;;;;;19.30;12.33;;;;;;;3.74;59.63;101379.09;5065571;28;20201;-63
2024/03/07 00:28:20;;;;;;;17.27;11.20;;;;;;;3.70;59.70;101373.00;5066391;28;20616;-64
2024/03/07 00:30:49;;;;;;;21.27;11.97;;;;;;;3.65;59.38;101377.06;5069989;28;20320;-63
2024/03/07 00:33:21;;;;;;;17.83;11.73;;;;;;;3.61;58.98;101370.13;5070567;28;20197;-66
2024/03/07 00:35:49;;;;;;;16.83;12.40;;;;;;;3.53;59.38;101364.72;5058768;28;20277;-70
2024/03/07 00:38:18;;;;;;;18.70;11.57;;;;;;;3.53;59.47;101376.59;5070938;28;20220;-62
2024/03/07 00:40:46;;;;;;;18.57;11.03;;;;;;;3.49;59.54;101370.50;5069944;28;20197;-64
2024/03/07 00:43:16;;;;;;;17.57;11.07;;;;;;;3.45;59.80;101373.75;5066350;28;20663;-63
2024/03/07 00:45:44;;;;;;;17.87;11.20;;;;;;;3.44;59.68;101371.16;5066924;28;20657;-62
2024/03/07 00:48:14;;;;;;;15.70;10.73;;;;;;;3.41;59.97;101365.94;5070056;28;20197;-64
2024/03/07 00:50:42;;;;;;;18.30;11.50;;;;;;;3.44;59.77;101372.03;5065054;28;20248;-63
2024/03/07 00:53:11;;;;;;;18.20;10.73;;;;;;;3.43;60.13;101369.44;5069271;28;20223;-63
2024/03/07 00:55:39;;;;;;;18.97;11.57;;;;;;;3.37;59.87;101364.94;5066577;28;20666;-63
2024/03/07 00:58:07;;;;;;;16.90;11.67;;;;;;;3.36;59.66;101369.19;5080740;28;20201;-64
2024/03/07 01:00:35;;;;;;;16.53;10.77;;;;;;;3.27;59.79;101357.75;5068858;28;20576;-62
2024/03/07 01:03:03;;;;;;;18.33;12.17;;;;;;;3.22;60.52;101367.75;5073716;28;20236;-63
2024/03/07 01:05:32;;;;;;;17.67;11.50;;;;;;;3.18;59.88;101368.47;5073853;28;20761;-63
2024/03/07 01:08:00;;;;;;;17.30;11.37;;;;;;;3.17;60.60;101369.28;5074419;28;20201;-66
2024/03/07 01:10:28;;;;;;;18.57;11.77;;;;;;;3.14;60.70;101366.59;5074493;28;20201;-63
2024/03/07 01:13:01;;;;;;;17.03;10.97;;;;;;;3.12;60.43;101366.53;5065769;28;20233;-64
2024/03/07 01:15:29;;;;;;;17.33;11.10;;;;;;;3.13;60.96;101364.88;5074213;28;20720;-65
2024/03/07 01:17:57;;;;;;;18.93;11.53;;;;;;;3.13;60.51;101370.81;5073667;28;20282;-63
2024/03/07 01:20:25;;;;;;;17.83;11.17;;;;;;;3.10;60.63;101367.28;5074064;28;20207;-65
2024/03/07 01:22:56;;;;;;;19.63;11.10;;;;;;;3.04;60.87;101384.84;5073071;28;20219;-66
2024/03/07 01:25:24;;;;;;;19.60;11.63;;;;;;;2.95;61.36;101374.31;5074080;28;20198;-66
2024/03/07 01:27:52;;;;;;;17.20;11.93;;;;;;;2.89;61.58;101374.91;5074028;28;20206;-63
2024/03/07 01:30:23;;;;;;;21.37;10.93;;;;;;;2.85;61.72;101380.69;5069397;28;20204;-64
2024/03/07 01:32:51;;;;;;;18.80;11.77;;;;;;;2.79;61.83;101373.66;5068879;28;20209;-62
2024/03/07 01:35:19;;;;;;;19.53;12.40;;;;;;;2.75;62.24;101374.34;5072568;28;20225;-63
2024/03/07 01:37:47;;;;;;;18.17;12.07;;;;;;;2.72;61.78;101386.06;5073803;28;20201;-62
2024/03/07 01:40:16;;;;;;;19.37;12.23;;;;;;;2.70;61.83;101386.03;5073666;28;20210;-66
2024/03/07 01:42:48;;;;;;;17.50;11.27;;;;;;;2.66;61.96;101379.06;5074119;28;20236;-64
2024/03/07 01:45:17;;;;;;;16.30;11.17;;;;;;;2.67;62.98;101385.88;5068691;28;20712;-62
2024/03/07 01:47:45;;;;;;;18.80;11.97;;;;;;;2.63;63.13;101382.34;5073827;28;20216;-64
2024/03/07 01:50:15;;;;;;;18.30;11.60;;;;;;;2.57;62.47;101386.28;5062475;28;20645;-62
2024/03/07 01:52:44;;;;;;;16.93;10.73;;;;;;;2.50;63.13;101384.28;5065659;28;20290;-63
2024/03/07 01:55:13;;;;;;;20.27;11.43;;;;;;;2.47;62.86;101385.06;5073364;28;20239;-63
2024/03/07 01:57:43;;;;;;;17.17;11.53;;;;;;;2.47;63.99;101384.16;5073883;28;20219;-63
2024/03/07 02:00:12;;;;;;;19.60;12.47;;;;;;;2.52;64.04;101385.25;5073597;28;20270;-63
2024/03/07 02:02:41;;;;;;;20.07;12.03;;;;;;;2.56;63.47;101382.03;5073253;28;20197;-63
2024/03/07 02:05:10;;;;;;;18.90;12.13;;;;;;;2.59;64.09;101384.72;5071408;28;20646;-63
2024/03/07 02:07:39;;;;;;;17.53;11.37;;;;;;;2.54;63.75;101381.06;5054767;28;20206;-62
2024/03/07 02:10:09;;;;;;;20.23;12.37;;;;;;;2.49;63.11;101391.06;5060127;28;20201;-65
2024/03/07 02:12:37;;;;;;;19.53;11.83;;;;;;;2.44;64.08;101386.59;5074600;28;20233;-63
2024/03/07 02:15:07;;;;;;;19.30;11.40;;;;;;;2.43;63.72;101380.66;5073002;28;20799;-63
2024/03/07 02:17:36;;;;;;;19.83;11.33;;;;;;;2.45;63.71;101378.16;5073713;28;20275;-63
2024/03/07 02:20:08;;;;;;;19.03;11.53;;;;;;;2.47;63.97;101373.97;5073198;28;20580;-67
2024/03/07 02:22:37;;;;;;;17.27;10.60;;;;;;;2.47;63.93;101379.06;5071612;28;20205;-63
2024/03/07 02:25:06;;;;;;;20.23;12.57;;;;;;;2.37;64.27;101373.59;5068366;28;20308;-64
2024/03/07 02:27:34;;;;;;;18.47;12.30;;;;;;;2.31;64.78;101378.41;5066247;28;20204;-63
2024/03/07 02:30:04;;;;;;;17.97;11.50;;;;;;;2.24;64.07;101378.97;5072884;28;20263;-62
2024/03/07 02:32:32;;;;;;;18.47;12.53;;;;;;;2.21;64.52;101386.47;5073394;28;21561;-64
2024/03/07 02:35:00;;;;;;;19.07;11.67;;;;;;;2.15;64.95;101381.13;5071971;28;20209;-62
2024/03/07 02:37:28;;;;;;;18.80;11.70;;;;;;;2.13;65.33;101385.25;5070703;28;20202;-63
2024/03/07 02:39:58;;;;;;;18.60;11.53;;;;;;;2.04;65.00;101382.31;5072998;28;20208;-64
2024/03/07 02:42:26;;;;;;;20.40;12.43;;;;;;;1.94;65.16;101386.97;5065971;28;20206;-63
2024/03/07 02:44:54;;;;;;;18.60;11.87;;;;;;;1.88;65.05;101388.41;5068206;28;20263;-63
2024/03/07 02:47:23;;;;;;;18.03;11.10;;;;;;;1.78;65.25;101386.22;5066183;28;20642;-62
2024/03/07 02:49:51;;;;;;;21.33;13.10;;;;;;;1.70;66.66;101396.03;5072737;28;20205;-67
2024/03/07 02:52:19;;;;;;;20.80;12.87;;;;;;;1.65;66.10;101392.41;5072545;28;20659;-64
2024/03/07 02:54:47;;;;;;;17.87;11.33;;;;;;;1.59;66.74;101389.59;5071903;28;20654;-63
2024/03/07 02:57:17;;;;;;;20.87;12.03;;;;;;;1.55;66.27;101388.59;5068493;28;20210;-66
2024/03/07 02:59:44;;;;;;;20.77;12.90;;;;;;;1.51;67.58;101388.34;5061763;28;20209;-63
2024/03/07 03:02:12;;;;;;;19.70;12.23;;;;;;;1.42;67.41;101392.22;5068253;28;20197;-65
2024/03/07 03:04:40;;;;;;;20.57;12.40;;;;;;;1.35;67.25;101385.09;5063204;28;20565;-63
2024/03/07 03:07:08;;;;;;;19.00;12.90;;;;;;;1.31;67.97;101388.28;5060067;28;20205;-63
2024/03/07 03:09:39;;;;;;;20.33;11.80;;;;;;;1.28;68.11;101389.81;5072571;28;20683;-62
2024/03/07 03:12:08;;;;;;;17.97;11.93;;;;;;;1.24;68.21;101387.94;5059376;28;20222;-63
2024/03/07 03:14:37;;;;;;;18.47;11.87;;;;;;;1.18;69.23;101391.94;5062117;28;20201;-62
2024/03/07 03:17:08;;;;;;;19.73;11.93;;;;;;;1.19;68.48;101390.25;5067592;28;20204;-62
2024/03/07 03:19:37;;;;;;;18.63;11.57;;;;;;;1.19;69.20;101401.28;5070227;28;20275;-61
2024/03/07 03:22:05;;;;;;;20.07;11.37;;;;;;;1.19;69.17;101398.75;5066627;28;20206;-62
2024/03/07 03:24:33;;;;;;;17.70;11.40;;;;;;;1.18;69.39;101401.22;5069101;28;20205;-64
2024/03/07 03:27:01;;;;;;;21.43;12.40;;;;;;;1.18;69.30;101389.38;5070419;28;20272;-64
2024/03/07 03:29:30;;;;;;;20.93;12.30;;;;;;;1.18;69.47;101394.47;5067884;28;20209;-63
2024/03/07 03:32:00;;;;;;;16.13;11.73;;;;;;;1.13;69.35;101395.91;5071435;28;20202;-62
2024/03/07 03:34:28;;;;;;;20.73;11.70;;;;;;;1.06;69.28;101398.94;5063889;28;20701;-61
2024/03/07 03:36:56;;;;;;;17.10;12.47;;;;;;;1.02;69.26;101411.41;5071845;28;20209;-62
2024/03/07 03:39:24;;;;;;;20.63;12.13;;;;;;;0.92;69.98;101399.91;5071566;28;20699;-63
2024/03/07 03:41:52;;;;;;;20.30;12.30;;;;;;;0.87;70.00;101407.31;5071918;28;20654;-62
2024/03/07 03:44:20;;;;;;;17.23;11.13;;;;;;;0.81;70.51;101412.09;5071335;28;20205;-63
2024/03/07 03:46:49;;;;;;;19.17;11.50;;;;;;;0.80;70.57;101417.09;5070855;28;20302;-64
2024/03/07 03:49:18;;;;;;;21.53;12.20;;;;;;;0.78;70.95;101411.09;5071675;28;20354;-62
2024/03/07 03:51:46;;;;;;;19.00;12.00;;;;;;;0.79;71.07;101408.59;5065704;28;20208;-63
2024/03/07 03:54:15;;;;;;;18.40;12.30;;;;;;;0.76;70.29;101408.44;5073240;28;20240;-62
2024/03/07 03:56:43;;;;;;;19.93;11.80;;;;;;;0.66;70.63;101412.22;5062488;28;20628;-63
2024/03/07 03:59:11;;;;;;;20.80;12.27;;;;;;;0.58;71.82;101412.59;5068715;28;20288;-66
2024/03/07 04:01:41;;;;;;;18.63;11.93;;;;;;;0.56;71.74;101416.75;5070797;28;20650;-64
2024/03/07 04:04:09;;;;;;;18.33;11.13;;;;;;;0.55;71.93;101414.97;5057271;28;20666;-63
2024/03/07 04:06:39;;;;;;;18.70;12.00;;;;;;;0.58;72.66;101407.53;5070415;28;20733;-63
2024/03/07 04:09:07;;;;;;;21.07;12.90;;;;;;;0.63;72.11;101413.72;5070223;28;20607;-65
2024/03/07 04:11:36;;;;;;;18.90;11.80;;;;;;;0.63;72.31;101416.25;5063887;28;20250;-64
2024/03/07 04:14:04;;;;;;;21.97;12.20;;;;;;;0.64;72.20;101412.91;5068015;28;20286;-62
2024/03/07 04:16:32;;;;;;;21.67;12.43;;;;;;;0.64;72.85;101413.78;5065528;28;20228;-63
2024/03/07 04:19:01;;;;;;;20.47;12.20;;;;;;;0.63;72.30;101414.59;5065893;28;20217;-63
2024/03/07 04:21:29;;;;;;;19.00;12.40;;;;;;;0.64;72.88;101410.38;5070807;28;20232;-62
2024/03/07 04:23:59;;;;;;;21.50;12.60;;;;;;;0.69;73.28;101411.47;5071030;28;20198;-63
2024/03/07 04:26:27;;;;;;;21.23;12.30;;;;;;;0.70;72.76;101410.66;5069390;28;20221;-62
2024/03/07 04:28:56;;;;;;;21.57;12.03;;;;;;;0.67;72.67;101403.81;5069207;28;20209;-61
2024/03/07 04:31:23;;;;;;;19.47;11.70;;;;;;;0.66;72.64;101412.22;5064259;28;20197;-62
2024/03/07 04:33:52;;;;;;;21.13;12.47;;;;;;;0.65;72.70;101404.50;5077123;28;20708;-63
2024/03/07 04:36:19;;;;;;;18.83;12.17;;;;;;;0.61;72.49;101412.75;5070532;28;20581;-63
2024/03/07 04:38:48;;;;;;;22.27;12.10;;;;;;;0.46;72.76;101412.84;5070745;28;20205;-64
2024/03/07 04:41:17;;;;;;;20.30;11.60;;;;;;;0.39;72.84;101414.19;5070604;28;20661;-64
2024/03/07 04:43:46;;;;;;;20.27;11.70;;;;;;;0.32;73.03;101414.66;5061356;28;20205;-63
2024/03/07 04:46:14;;;;;;;22.93;12.57;;;;;;;0.30;73.73;101416.28;5066141;28;20205;-62
2024/03/07 04:48:42;;;;;;;20.27;12.87;;;;;;;0.25;73.16;101415.16;5070149;28;20201;-64
2024/03/07 04:51:10;;;;;;;21.13;12.47;;;;;;;0.21;73.98;101420.84;5063109;28;20209;-62
2024/03/07 04:53:41;;;;;;;19.97;12.77;;;;;;;0.19;73.89;101425.84;5067679;28;20572;-63
2024/03/07 04:56:10;;;;;;;21.30;11.83;;;;;;;0.14;73.65;101423.84;5070824;28;20201;-62
2024/03/07 04:58:39;;;;;;;21.23;12.30;;;;;;;0.08;74.29;101424.41;5069940;28;20270;-62
2024/03/07 05:01:07;;;;;;;18.97;11.23;;;;;;;0.02;74.27;101429.16;5070854;28;20275;-62
2024/03/07 05:03:35;;;;;;;20.17;12.27;;;;;;;-0.07;74.47;101424.47;5064010;28;20650;-66
2024/03/07 05:06:04;;;;;;;20.83;12.10;;;;;;;-0.11;74.53;101432.69;5070724;28;20674;-64
2024/03/07 05:08:33;;;;;;;19.60;11.70;;;;;;;-0.15;75.05;101432.44;5063140;28;20204;-64
2024/03/07 05:11:01;;;;;;;19.80;12.03;;;;;;;-0.18;75.13;101430.63;5071320;28;20197;-64
2024/03/07 05:13:29;;;;;;;18.83;12.57;;;;;;;-0.14;75.72;101427.47;5070238;28;20693;-63
2024/03/07 05:15:59;;;;;;;22.67;12.60;;;;;;;-0.15;75.51;101430.75;5068103;28;20205;-64
2024/03/07 05:18:27;;;;;;;19.43;11.57;;;;;;;-0.15;75.90;101432.44;5065597;28;20242;-65
2024/03/07 05:20:55;;;;;;;18.93;12.30;;;;;;;-0.13;75.70;101438.47;5067866;28;20693;-64
2024/03/07 05:23:24;;;;;;;18.70;11.50;;;;;;;-0.10;76.12;101438.63;5057729;28;20272;-64
2024/03/07 05:25:52;;;;;;;21.43;11.70;;;;;;;-0.10;75.61;101443.69;5060270;28;20220;-62
2024/03/07 05:28:20;;;;;;;19.83;11.47;;;;;;;-0.08;75.65;101444.63;5070407;28;20205;-63
2024/03/07 05:30:49;;;;;;;18.40;11.70;;;;;;;-0.06;75.82;101448.13;5070416;28;20280;-64
2024/03/07 05:33:20;;;;;;;20.97;11.43;;;;;;;-0.03;75.75;101451.72;5065744;28;20261;-62
2024/03/07 05:35:50;;;;;;;20.30;11.97;;;;;;;-0.03;75.58;101446.66;5069975;28;20245;-63
2024/03/07 05:38:18;;;;;;;19.63;11.23;;;;;;;-0.01;75.86;101450.13;5070872;28;20640;-64
2024/03/07 05:40:48;;;;;;;19.00;11.17;;;;;;;-0.01;75.46;101452.66;5073798;28;20206;-64
2024/03/07 05:43:16;;;;;;;17.30;11.30;;;;;;;0.04;75.55;101452.03;5059816;28;20239;-64
2024/03/07 05:45:45;;;;;;;18.47;11.13;;;;;;;0.07;75.76;101452.19;5078940;28;20559;-63
2024/03/07 05:48:17;;;;;;;18.50;11.10;;;;;;;0.06;74.94;101455.53;5073486;28;20219;-65
2024/03/07 05:50:46;;;;;;;19.10;11.43;;;;;;;0.06;75.51;101450.44;5073014;28;20287;-63
2024/03/07 05:53:15;;;;;;;18.03;11.03;;;;;;;0.10;74.82;101454.88;5072567;28;20201;-63
2024/03/07 05:55:43;;;;;;;15.40;9.70;;;;;;;0.12;74.82;101458.41;5073091;28;20658;-65
2024/03/07 05:58:12;;;;;;;18.40;11.10;;;;;;;0.12;74.88;101458.41;5071107;28;20216;-64
2024/03/07 06:00:40;;;;;;;20.47;11.57;;;;;;;0.11;74.98;101449.91;5059863;28;20216;-64
2024/03/07 06:03:08;;;;;;;17.80;10.67;;;;;;;0.11;74.70;101449.03;5069739;28;20658;-63
2024/03/07 06:05:36;;;;;;;19.17;11.60;;;;;;;0.11;73.90;101452.47;5073416;28;20212;-63
2024/03/07 06:08:06;;;;;;;18.57;10.30;;;;;;;0.10;73.90;101455.75;5068060;28;20202;-64
2024/03/07 06:10:35;;;;;;;19.00;10.80;;;;;;;0.13;74.09;101462.66;5069661;28;20303;-62
2024/03/07 06:13:03;;;;;;;17.30;10.30;;;;;;;0.12;74.37;101461.78;5072419;28;20241;-64
2024/03/07 06:15:39;;;;;;;19.27;9.93;;;;;;;0.16;74.61;101453.56;5069529;28;20260;-64
2024/03/07 06:18:10;;;;;;;19.03;10.90;;;;;;;0.14;74.63;101450.06;5066427;28;20205;-63
2024/03/07 06:20:40;;;;;;;17.33;10.67;;;;;;;0.21;74.33;101456.31;5063231;28;20208;-64
2024/03/07 06:23:11;;;;;;;18.00;10.63;;;;;;;0.20;73.39;101454.59;5074479;28;20205;-63
2024/03/07 06:25:47;;;;;;;17.27;11.33;;;;;;;0.21;73.80;101461.41;5072404;28;20215;-62
2024/03/07 06:28:15;;;;;;;17.73;10.43;;;;;;;0.20;73.05;101462.19;5068833;28;20288;-64
2024/03/07 06:30:46;;;;;;;19.10;11.47;;;;;;;0.22;73.32;101465.66;5072185;28;20286;-64
2024/03/07 06:33:16;;;;;;;16.50;9.80;;;;;;;0.26;73.55;101467.59;5070217;28;20235;-65
2024/03/07 06:35:45;;;;;;;17.30;10.77;;;;;;;0.28;73.55;101466.00;5069140;28;20239;-63
2024/03/07 06:38:14;;;;;;;16.37;10.23;;;;;;;0.35;73.63;101469.75;5070968;28;20237;-64
2024/03/07 06:40:43;;;;;;;18.57;10.90;;;;;;;0.34;72.81;101468.88;5072044;28;20296;-62
2024/03/07 06:43:11;;;;;;;16.43;11.13;;;;;;;0.34;72.29;101460.41;5065271;28;20202;-63
2024/03/07 06:45:41;;;;;;;17.47;11.00;;;;;;;0.31;73.16;101462.75;5069308;28;20197;-63
2024/03/07 06:48:09;;;;;;;16.80;10.40;;;;;;;0.36;73.05;101459.66;5077040;28;20288;-63
2024/03/07 06:50:38;;;;;;;19.37;11.03;;;;;;;0.45;72.43;101471.97;5070354;28;20288;-64
2024/03/07 06:53:07;;;;;;;17.20;10.30;;;;;;;0.58;72.57;101460.78;5070264;28;20205;-63
2024/03/07 06:55:38;;;;;;;18.20;9.73;;;;;;;0.75;72.06;101460.00;5065564;28;20245;-63
2024/03/07 06:58:06;;;;;;;14.70;9.30;;;;;;;0.99;70.13;101456.94;5067764;28;20294;-62
2024/03/07 07:00:35;;;;;;;13.47;9.00;;;;;;;1.26;69.33;101457.44;5070396;28;20205;-64
2024/03/07 07:03:06;;;;;;;22.47;10.77;;;;;;;1.52;68.21;101456.16;5063150;28;20216;-63
2024/03/07 07:05:35;;;;;;;14.00;8.77;;;;;;;1.67;67.64;101451.78;5066984;28;20205;-66
2024/03/07 07:08:05;;;;;;;16.13;9.63;;;;;;;1.94;67.47;101453.06;5072233;28;20200;-66
2024/03/07 07:10:33;;;;;;;15.83;9.00;;;;;;;2.13;65.77;101464.94;5069455;28;20563;-65
2024/03/07 07:13:04;;;;;;;15.17;8.77;;;;;;;2.37;65.81;101456.69;5072222;28;20237;-67
2024/03/07 07:15:33;;;;;;;16.73;10.90;;;;;;;2.63;64.31;101457.81;5070680;28;20543;-66
2024/03/07 07:18:02;;;;;;;21.17;9.53;;;;;;;2.93;63.95;101459.94;5066961;28;20200;-66
2024/03/07 07:20:30;;;;;;;13.23;8.60;;;;;;;3.24;61.45;101460.41;5071536;28;20202;-66
2024/03/07 07:23:00;;;;;;;12.73;7.47;;;;;;;3.48;61.49;101464.75;5070462;28;20201;-65
2024/03/07 07:25:28;;;;;;;12.13;8.40;;;;;;;3.68;58.50;101457.88;5071003;28;20197;-66
2024/03/07 07:27:57;;;;;;;12.90;8.33;;;;;;;3.72;58.39;101460.63;5070300;28;20209;-67
2024/03/07 07:30:27;;;;;;;12.17;7.27;;;;;;;3.77;57.66;101453.13;5069576;28;20209;-65
2024/03/07 07:32:55;;;;;;;10.50;7.30;;;;;;;3.75;57.52;101455.63;5069230;28;20289;-63
2024/03/07 07:35:24;;;;;;;12.93;7.93;;;;;;;3.79;57.06;101459.16;5080107;28;20209;-63
2024/03/07 07:37:55;;;;;;;13.70;8.53;;;;;;;3.98;57.86;101450.56;5062577;28;20209;-63
2024/03/07 07:40:27;;;;;;;12.43;8.17;;;;;;;4.53;56.49;101457.69;5072248;28;20603;-65
2024/03/07 07:42:55;;;;;;;13.20;7.03;;;;;;;5.17;53.48;101446.22;5069427;28;20201;-63
2024/03/07 07:45:24;;;;;;;13.13;8.17;;;;;;;5.99;49.62;101453.09;5061777;28;20203;-63
2024/03/07 07:47:54;;;;;;;8.07;5.80;;;;;;;6.47;48.84;101448.50;5069033;28;20557;-65
2024/03/07 07:50:24;;;;;;;9.03;6.80;;;;;;;6.89;45.59;101447.06;5065299;28;20650;-64
2024/03/07 07:52:54;;;;;;;9.90;7.07;;;;;;;6.77;44.83;101443.38;5072225;28;20654;-65
2024/03/07 07:55:24;;;;;;;9.53;6.63;;;;;;;7.06;46.00;101447.50;5067779;28;20253;-64
2024/03/07 07:57:53;;;;;;;8.17;5.83;;;;;;;7.31;45.01;101448.97;5063518;28;20205;-61
2024/03/07 08:00:24;;;;;;;10.50;6.70;;;;;;;7.60;44.17;101447.09;5069946;28;20193;-64
2024/03/07 08:02:55;;;;;;;9.33;6.20;;;;;;;7.48;43.05;101437.44;5067186;28;20209;-64
2024/03/07 08:05:27;;;;;;;9.27;6.03;;;;;;;7.75;44.71;101444.88;5071099;28;20605;-63
2024/03/07 08:07:56;;;;;;;8.33;6.30;;;;;;;8.44;41.98;101438.66;5068572;28;20211;-63
2024/03/07 08:10:28;;;;;;;11.47;5.67;;;;;;;8.73;40.38;101446.03;5067307;28;20682;-60
2024/03/07 08:12:57;;;;;;;10.03;5.73;;;;;;;8.81;41.32;101432.50;5069082;28;20237;-60
2024/03/07 08:15:27;;;;;;;8.40;6.53;;;;;;;8.57;40.29;101440.63;5062237;28;20221;-61
2024/03/07 08:17:59;;;;;;;8.33;6.43;;;;;;;8.21;40.11;101440.72;5067748;28;20650;-64
2024/03/07 08:20:28;;;;;;;8.80;6.03;;;;;;;7.95;41.29;101442.75;5064937;28;20219;-61
2024/03/07 08:22:57;;;;;;;6.67;5.23;;;;;;;7.70;42.17;101437.09;5065688;28;20206;-60
2024/03/07 08:25:26;;;;;;;7.13;5.80;;;;;;;7.58;42.45;101441.91;5069722;28;20620;-61
2024/03/07 08:27:57;;;;;;;7.67;5.60;;;;;;;7.76;44.39;101446.59;5069847;28;20668;-63
2024/03/07 08:30:28;;;;;;;7.33;5.90;;;;;;;8.06;41.94;101446.41;5069602;28;20201;-66
2024/03/07 08:33:02;;;;;;;7.63;5.50;;;;;;;8.13;41.58;101443.13;5068918;28;20205;-62
2024/03/07 08:35:30;;;;;;;7.70;5.67;;;;;;;8.05;40.75;101444.69;5062131;28;20221;-66
2024/03/07 08:37:58;;;;;;;8.73;5.53;;;;;;;7.50;41.39;101440.88;5067821;28;20209;-61
2024/03/07 08:40:32;;;;;;;8.27;5.67;;;;;;;7.10;42.80;101447.59;5067381;28;20209;-62
2024/03/07 08:43:02;;;;;;;8.13;5.17;;;;;;;7.02;43.64;101446.53;5062809;28;20214;-65
2024/03/07 08:45:33;;;;;;;6.90;5.00;;;;;;;6.98;43.17;101444.72;5069852;28;20205;-64
2024/03/07 08:48:05;;;;;;;7.73;5.77;;;;;;;6.76;42.89;101441.59;5070345;28;20316;-63
2024/03/07 08:50:34;;;;;;;9.23;6.10;;;;;;;6.45;44.11;101445.06;5070756;28;20213;-64
2024/03/07 08:53:04;;;;;;;7.00;5.10;;;;;;;6.50;44.79;101440.06;5067543;28;20231;-63
2024/03/07 08:55:32;;;;;;;8.47;5.53;;;;;;;6.56;45.13;101442.78;5070679;28;20672;-64
2024/03/07 08:58:00;;;;;;;7.97;6.10;;;;;;;6.74;44.56;101450.09;5070144;28;20233;-64
2024/03/07 09:00:28;;;;;;;6.40;5.53;;;;;;;6.93;44.30;101439.50;5068946;28;20255;-66
2024/03/07 09:02:58;;;;;;;12.63;5.77;;;;;;;6.93;44.60;101436.94;5062477;28;20263;-66
2024/03/07 09:05:33;;;;;;;9.07;6.37;;;;;;;6.90;44.12;101434.28;5067996;28;20197;-63
2024/03/07 09:08:03;;;;;;;7.50;5.53;;;;;;;6.84;43.59;101441.81;5070307;28;20704;-64
2024/03/07 09:10:31;;;;;;;12.00;5.70;;;;;;;6.93;44.61;101433.50;5068330;28;20608;-65
2024/03/07 09:12:59;;;;;;;8.60;5.33;;;;;;;6.96;43.76;101436.16;5069341;28;20331;-62
2024/03/07 09:15:28;;;;;;;8.57;5.67;;;;;;;6.64;42.91;101435.31;5073449;28;20221;-64
2024/03/07 09:17:57;;;;;;;7.20;5.37;;;;;;;6.36;44.32;101428.56;5073662;28;20194;-61
2024/03/07 09:20:26;;;;;;;7.73;5.67;;;;;;;5.96;44.26;101427.41;5073044;28;20735;-66
2024/03/07 09:22:56;;;;;;;7.50;5.75;;;;;;;5.81;45.17;101427.78;5074628;28;20449;-62
2024/03/07 09:25:24;;;;;;;8.83;5.00;;;;;;;5.66;45.68;101429.88;5067212;28;20200;-64
2024/03/07 09:27:54;;;;;;;6.40;5.07;;;;;;;5.56;45.20;101421.94;5070196;28;20658;-64
2024/03/07 09:30:25;;;;;;;6.73;4.53;;;;;;;5.47;45.35;101433.56;5071998;28;20289;-65
2024/03/07 09:32:55;;;;;;;6.57;4.77;;;;;;;5.18;44.68;101427.53;5065566;28;20287;-62
2024/03/07 09:35:24;;;;;;;6.47;4.53;;;;;;;4.92;45.26;101432.63;5066950;28;20317;-60
2024/03/07 09:37:53;;;;;;;5.60;4.67;;;;;;;4.81;46.53;101433.97;5071677;28;20225;-60
2024/03/07 09:40:25;;;;;;;7.20;5.17;;;;;;;4.77;46.26;101437.22;5073308;28;20657;-63
2024/03/07 09:42:57;;;;;;;5.73;4.77;;;;;;;4.78;46.84;101441.50;5071716;28;20680;-61
2024/03/07 09:45:31;;;;;;;6.03;4.80;;;;;;;4.71;46.78;101437.00;5072979;28;20212;-62
2024/03/07 09:48:00;;;;;;;7.53;4.43;;;;;;;4.59;46.80;101440.00;5072978;28;20205;-62
2024/03/07 09:50:31;;;;;;;6.20;4.73;;;;;;;4.48;46.39;101438.75;5064893;28;20251;-61
2024/03/07 09:53:00;;;;;;;6.40;4.70;;;;;;;4.44;46.17;101435.22;5073310;28;20201;-61
2024/03/07 09:55:30;;;;;;;7.40;4.80;;;;;;;4.40;47.07;101435.94;5073616;28;20250;-61
2024/03/07 09:58:00;;;;;;;9.70;4.87;;;;;;;4.43;46.98;101422.44;5065916;28;20201;-62
2024/03/07 10:00:29;;;;;;;9.50;4.80;;;;;;;4.52;46.61;101436.34;5069972;28;20265;-61
2024/03/07 10:03:00;;;;;;;5.27;4.17;;;;;;;4.55;46.87;101435.59;5071296;28;20201;-62
2024/03/07 10:05:29;;;;;;;8.23;5.00;;;;;;;4.63;45.90;101438.44;5073190;28;20208;-60
2024/03/07 10:07:57;;;;;;;9.57;5.13;;;;;;;4.74;45.72;101430.31;5073710;28;20960;-60
2024/03/07 10:10:26;;;;;;;5.60;4.00;;;;;;;4.74;46.32;101422.66;5072655;28;20213;-62
2024/03/07 10:12:57;;;;;;;8.97;5.10;;;;;;;4.72;46.34;101421.75;5070878;28;20803;-60
2024/03/07 10:15:29;;;;;;;9.33;4.53;;;;;;;4.74;46.36;101429.47;5072993;28;20606;-62
2024/03/07 10:17:57;;;;;;;7.10;4.80;;;;;;;4.81;46.66;101422.06;5071390;28;20193;-60
2024/03/07 10:20:25;;;;;;;7.27;4.40;;;;;;;4.95;45.80;101425.09;5072549;28;20292;-61
2024/03/07 10:22:53;;;;;;;8.10;4.90;;;;;;;5.10;45.57;101424.72;5072802;28;20358;-61
2024/03/07 10:25:24;;;;;;;7.57;4.87;;;;;;;5.30;44.73;101423.69;5071799;28;20201;-63
2024/03/07 10:27:52;;;;;;;5.67;4.60;;;;;;;5.47;43.94;101420.78;5069977;28;20254;-61
2024/03/07 10:30:22;;;;;;;7.23;4.30;;;;;;;5.67;44.27;101419.72;5062066;28;20204;-62
2024/03/07 10:32:55;;;;;;;7.17;5.17;;;;;;;5.84;43.94;101424.47;5069838;28;20292;-62
2024/03/07 10:35:25;;;;;;;5.93;4.63;;;;;;;5.89;43.91;101420.34;5068472;28;20205;-66
2024/03/07 10:37:54;;;;;;;10.40;5.00;;;;;;;5.90;44.70;101417.84;5072407;28;20206;-60
2024/03/07 10:40:25;;;;;;;7.80;4.70;;;;;;;5.92;43.82;101420.44;5069974;28;20574;-62
2024/03/07 10:42:57;;;;;;;5.57;4.23;;;;;;;5.81;44.06;101420.97;5071084;28;20236;-60
2024/03/07 10:45:30;;;;;;;6.77;4.87;;;;;;;5.65;44.23;101413.69;5076793;28;20310;-61
2024/03/07 10:48:00;;;;;;;7.83;4.90;;;;;;;5.54;44.48;101413.34;5070801;28;20216;-61
2024/03/07 10:50:43;;;;;;;6.03;4.63;;;;;;;5.38;44.37;101415.41;5073167;28;20216;-61
2024/03/07 10:53:26;;;;;;;5.67;4.60;;;;;;;5.21;45.00;101415.72;5069702;28;20281;-60
2024/03/07 10:56:11;;;;;;;7.03;5.07;;;;;;;5.13;45.10;101422.28;5071750;28;20684;-60
2024/03/07 10:58:50;;;;;;;7.30;4.93;;;;;;;5.15;45.38;101412.94;5065385;28;20284;-62
2024/03/07 11:01:21;;;;;;;11.03;4.80;;;;;;;5.30;45.35;101400.69;5068333;28;20201;-63
2024/03/07 11:03:51;;;;;;;6.60;5.20;;;;;;;5.65;46.14;101403.47;5068708;28;20208;-62
2024/03/07 11:06:21;;;;;;;6.77;4.53;;;;;;;5.97;43.52;101411.25;5071896;28;20657;-62
2024/03/07 11:08:50;;;;;;;10.60;5.27;;;;;;;6.16;43.33;101402.41;5062992;28;20201;-63
2024/03/07 11:11:19;;;;;;;6.63;4.37;;;;;;;6.38;42.59;101406.44;5069733;28;20614;-68
2024/03/07 11:13:49;;;;;;;8.10;5.00;;;;;;;6.63;42.53;101408.84;5069583;28;20231;-64
2024/03/07 11:16:20;;;;;;;6.13;4.40;;;;;;;6.84;42.42;101397.41;5070766;28;20229;-62
2024/03/07 11:19:19;;;;;;;6.63;5.00;;;;;;;6.97;40.66;101402.00;5071845;28;20204;-64
2024/03/07 11:21:50;;;;;;;7.17;5.10;;;;;;;6.90;41.34;101402.69;5067002;28;20205;-62
2024/03/07 11:24:25;;;;;;;6.63;4.70;;;;;;;6.86;41.72;101398.31;5068636;28;20625;-63
2024/03/07 11:26:54;;;;;;;6.10;4.53;;;;;;;6.93;40.88;101397.63;5070456;28;20626;-63
2024/03/07 11:29:52;;;;;;;6.97;4.60;;;;;;;6.94;41.35;101389.97;5069076;28;20288;-66
2024/03/07 11:32:23;;;;;;;8.23;5.60;;;;;;;7.04;41.32;101385.09;5069240;28;20557;-63